PWSweather.com
Personal Weather Stations
Station Observations
KNCCHINA3
Red Tractor Trail, China Grove, NC 28023

Red Tractor TrailChina Grove, NC 28023

Lat: 35.59751, Lon: -80.60201

Elevation: 800

Station Type: Oregon Scientific WMR 968

http://www.joesweathergarage.com

High Low Average
Temperature 72.5°F22.5°C 62.2°F16.8°C 66.2°F19.0°C
Dew Point 72.5°F22.5°C 62.2°F16.8°C 66.2°F19.0°C
Winds - 16091.8 kmh - 16091.8 kmh - N16091.8 kmh N
Wind Gusts -- -- --
Humidity 100% 100% 100%
Pressure 30.01 in1016.3 mb 29.92 in1013.2 mb -
Precipitation 0.00 in0.0 mm - -
Hour Temp Dew Point Humidity Winds Wind Gusts Pressure Precip Precip Rate Daily Precip Total
12:06 AM 66.2°F19.0°C 66.2°F19.0°C 100% - N16091.8 kmh N -- 30.01 in1016.3 mb 0.00 in0.0 mm 0.00 in/hr0.0 mm/hr 0.00 in0.0 mm
12:11 AM 66.2°F19.0°C 66.2°F19.0°C 100% - N16091.8 kmh N -- 30.01 in1016.3 mb 0.00 in0.0 mm 0.00 in/hr0.0 mm/hr 0.00 in0.0 mm
12:17 AM 66.0°F18.9°C 66.0°F18.9°C 100% - N16091.8 kmh N -- 30.01 in1016.3 mb 0.00 in0.0 mm 0.00 in/hr0.0 mm/hr 0.00 in0.0 mm
12:22 AM 65.8°F18.8°C 65.8°F18.8°C 100% - N16091.8 kmh N -- 30.01 in1016.3 mb 0.00 in0.0 mm 0.00 in/hr0.0 mm/hr 0.00 in0.0 mm
12:28 AM 65.7°F18.7°C 65.7°F18.7°C 100% - N16091.8 kmh N -- 30.01 in1016.3 mb 0.00 in0.0 mm 0.00 in/hr0.0 mm/hr 0.00 in0.0 mm
12:33 AM 65.7°F18.7°C 65.7°F18.7°C 100% - N16091.8 kmh N -- 30.01 in1016.3 mb 0.00 in0.0 mm 0.00 in/hr0.0 mm/hr 0.00 in0.0 mm
12:38 AM 65.7°F18.7°C 65.7°F18.7°C 100% - N16091.8 kmh N -- 30.01 in1016.3 mb 0.00 in0.0 mm 0.00 in/hr0.0 mm/hr 0.00 in0.0 mm
12:43 AM 65.5°F18.6°C 65.5°F18.6°C 100% - N16091.8 kmh N -- 30.01 in1016.3 mb 0.00 in0.0 mm 0.00 in/hr0.0 mm/hr 0.00 in0.0 mm
12:49 AM 65.5°F18.6°C 65.5°F18.6°C 100% - N16091.8 kmh N -- 30.01 in1016.3 mb 0.00 in0.0 mm 0.00 in/hr0.0 mm/hr 0.00 in0.0 mm
12:53 AM 65.3°F18.5°C 65.3°F18.5°C 100% - N16091.8 kmh N -- 30.01 in1016.3 mb 0.00 in0.0 mm 0.00 in/hr0.0 mm/hr 0.00 in0.0 mm
12:59 AM 65.1°F18.4°C 65.1°F18.4°C 100% - N16091.8 kmh N -- 30.01 in1016.3 mb 0.00 in0.0 mm 0.00 in/hr0.0 mm/hr 0.00 in0.0 mm
01:04 AM 65.1°F18.4°C 65.1°F18.4°C 100% - N16091.8 kmh N -- 30.01 in1016.3 mb 0.00 in0.0 mm 0.00 in/hr0.0 mm/hr 0.00 in0.0 mm
01:11 AM 64.9°F18.3°C 64.9°F18.3°C 100% - N16091.8 kmh N -- 30.01 in1016.3 mb 0.00 in0.0 mm 0.00 in/hr0.0 mm/hr 0.00 in0.0 mm
01:16 AM 64.9°F18.3°C 64.9°F18.3°C 100% - N16091.8 kmh N -- 30.01 in1016.3 mb 0.00 in0.0 mm 0.00 in/hr0.0 mm/hr 0.00 in0.0 mm
01:22 AM 64.8°F18.2°C 64.8°F18.2°C 100% - N16091.8 kmh N -- 30.01 in1016.3 mb 0.00 in0.0 mm 0.00 in/hr0.0 mm/hr 0.00 in0.0 mm
01:27 AM 64.8°F18.2°C 64.8°F18.2°C 100% - N16091.8 kmh N -- 30.01 in1016.3 mb 0.00 in0.0 mm 0.00 in/hr0.0 mm/hr 0.00 in0.0 mm
01:32 AM 64.6°F18.1°C 64.6°F18.1°C 100% - N16091.8 kmh N -- 30.01 in1016.3 mb 0.00 in0.0 mm 0.00 in/hr0.0 mm/hr 0.00 in0.0 mm
01:37 AM 64.6°F18.1°C 64.6°F18.1°C 100% - N16091.8 kmh N -- 30.01 in1016.3 mb 0.00 in0.0 mm 0.00 in/hr0.0 mm/hr 0.00 in0.0 mm
01:43 AM 64.6°F18.1°C 64.6°F18.1°C 100% - N16091.8 kmh N -- 30.01 in1016.3 mb 0.00 in0.0 mm 0.00 in/hr0.0 mm/hr 0.00 in0.0 mm
01:48 AM 64.6°F18.1°C 64.6°F18.1°C 100% - N16091.8 kmh N -- 30.01 in1016.3 mb 0.00 in0.0 mm 0.00 in/hr0.0 mm/hr 0.00 in0.0 mm
01:53 AM 64.6°F18.1°C 64.6°F18.1°C 100% - N16091.8 kmh N -- 30.01 in1016.3 mb 0.00 in0.0 mm 0.00 in/hr0.0 mm/hr 0.00 in0.0 mm
01:58 AM 64.4°F18.0°C 64.4°F18.0°C 100% - N16091.8 kmh N -- 30.01 in1016.3 mb 0.00 in0.0 mm 0.00 in/hr0.0 mm/hr 0.00 in0.0 mm
02:03 AM 64.4°F18.0°C 64.4°F18.0°C 100% - N16091.8 kmh N -- 30.01 in1016.3 mb 0.00 in0.0 mm 0.00 in/hr0.0 mm/hr 0.00 in0.0 mm
02:08 AM 64.2°F17.9°C 64.2°F17.9°C 100% - N16091.8 kmh N -- 30.01 in1016.3 mb 0.00 in0.0 mm 0.00 in/hr0.0 mm/hr 0.00 in0.0 mm
02:14 AM 64.2°F17.9°C 64.2°F17.9°C 100% - N16091.8 kmh N -- 30.01 in1016.3 mb 0.00 in0.0 mm 0.00 in/hr0.0 mm/hr 0.00 in0.0 mm
02:18 AM 64.2°F17.9°C 64.2°F17.9°C 100% - N16091.8 kmh N -- 30.01 in1016.3 mb 0.00 in0.0 mm 0.00 in/hr0.0 mm/hr 0.00 in0.0 mm
02:24 AM 64.2°F17.9°C 64.2°F17.9°C 100% - N16091.8 kmh N -- 30.01 in1016.3 mb 0.00 in0.0 mm 0.00 in/hr0.0 mm/hr 0.00 in0.0 mm
02:28 AM 64.0°F17.8°C 64.0°F17.8°C 100% - N16091.8 kmh N -- 30.01 in1016.3 mb 0.00 in0.0 mm 0.00 in/hr0.0 mm/hr 0.00 in0.0 mm
02:34 AM 64.0°F17.8°C 64.0°F17.8°C 100% - N16091.8 kmh N -- 30.01 in1016.3 mb 0.00 in0.0 mm 0.00 in/hr0.0 mm/hr 0.00 in0.0 mm
02:39 AM 63.9°F17.7°C 63.9°F17.7°C 100% - N16091.8 kmh N -- 30.01 in1016.3 mb 0.00 in0.0 mm 0.00 in/hr0.0 mm/hr 0.00 in0.0 mm
02:44 AM 63.7°F17.6°C 63.7°F17.6°C 100% - N16091.8 kmh N -- 30.01 in1016.3 mb 0.00 in0.0 mm 0.00 in/hr0.0 mm/hr 0.00 in0.0 mm
02:49 AM 63.7°F17.6°C 63.7°F17.6°C 100% - N16091.8 kmh N -- 30.01 in1016.3 mb 0.00 in0.0 mm 0.00 in/hr0.0 mm/hr 0.00 in0.0 mm
02:55 AM 63.7°F17.6°C 63.7°F17.6°C 100% - N16091.8 kmh N -- 30.01 in1016.3 mb 0.00 in0.0 mm 0.00 in/hr0.0 mm/hr 0.00 in0.0 mm
03:00 AM 63.9°F17.7°C 63.9°F17.7°C 100% - N16091.8 kmh N -- 30.01 in1016.3 mb 0.00 in0.0 mm 0.00 in/hr0.0 mm/hr 0.00 in0.0 mm
03:05 AM 63.9°F17.7°C 63.9°F17.7°C 100% - N16091.8 kmh N -- 30.01 in1016.3 mb 0.00 in0.0 mm 0.00 in/hr0.0 mm/hr 0.00 in0.0 mm
03:10 AM 64.0°F17.8°C 64.0°F17.8°C 100% - N16091.8 kmh N -- 30.01 in1016.3 mb 0.00 in0.0 mm 0.00 in/hr0.0 mm/hr 0.00 in0.0 mm
03:15 AM 64.2°F17.9°C 64.2°F17.9°C 100% - N16091.8 kmh N -- 30.01 in1016.3 mb 0.00 in0.0 mm 0.00 in/hr0.0 mm/hr 0.00 in0.0 mm
03:20 AM 64.4°F18.0°C 64.4°F18.0°C 100% - N16091.8 kmh N -- 30.01 in1016.3 mb 0.00 in0.0 mm 0.00 in/hr0.0 mm/hr 0.00 in0.0 mm
03:27 AM 64.6°F18.1°C 64.6°F18.1°C 100% - N16091.8 kmh N -- 29.98 in1015.2 mb 0.00 in0.0 mm 0.00 in/hr0.0 mm/hr 0.00 in0.0 mm
03:32 AM 64.8°F18.2°C 64.8°F18.2°C 100% - N16091.8 kmh N -- 29.98 in1015.2 mb 0.00 in0.0 mm 0.00 in/hr0.0 mm/hr 0.00 in0.0 mm
03:38 AM 64.9°F18.3°C 64.9°F18.3°C 100% - N16091.8 kmh N -- 29.98 in1015.2 mb 0.00 in0.0 mm 0.00 in/hr0.0 mm/hr 0.00 in0.0 mm
03:43 AM 65.1°F18.4°C 65.1°F18.4°C 100% - N16091.8 kmh N -- 29.98 in1015.2 mb 0.00 in0.0 mm 0.00 in/hr0.0 mm/hr 0.00 in0.0 mm
03:48 AM 65.3°F18.5°C 65.3°F18.5°C 100% - N16091.8 kmh N -- 29.98 in1015.2 mb 0.00 in0.0 mm 0.00 in/hr0.0 mm/hr 0.00 in0.0 mm
03:53 AM 65.3°F18.5°C 65.3°F18.5°C 100% - N16091.8 kmh N -- 29.98 in1015.2 mb 0.00 in0.0 mm 0.00 in/hr0.0 mm/hr 0.00 in0.0 mm
03:59 AM 65.5°F18.6°C 65.5°F18.6°C 100% - N16091.8 kmh N -- 29.98 in1015.2 mb 0.00 in0.0 mm 0.00 in/hr0.0 mm/hr 0.00 in0.0 mm
04:04 AM 65.5°F18.6°C 65.5°F18.6°C 100% - N16091.8 kmh N -- 29.98 in1015.2 mb 0.00 in0.0 mm 0.00 in/hr0.0 mm/hr 0.00 in0.0 mm
04:11 AM 65.5°F18.6°C 65.5°F18.6°C 100% - N16091.8 kmh N -- 29.98 in1015.2 mb 0.00 in0.0 mm 0.00 in/hr0.0 mm/hr 0.00 in0.0 mm
04:16 AM 65.5°F18.6°C 65.5°F18.6°C 100% - N16091.8 kmh N -- 29.98 in1015.2 mb 0.00 in0.0 mm 0.00 in/hr0.0 mm/hr 0.00 in0.0 mm
04:21 AM 65.5°F18.6°C 65.5°F18.6°C 100% - N16091.8 kmh N -- 29.98 in1015.2 mb 0.00 in0.0 mm 0.00 in/hr0.0 mm/hr 0.00 in0.0 mm
04:26 AM 65.5°F18.6°C 65.5°F18.6°C 100% - N16091.8 kmh N -- 29.98 in1015.2 mb 0.00 in0.0 mm 0.00 in/hr0.0 mm/hr 0.00 in0.0 mm
04:31 AM 65.7°F18.7°C 65.7°F18.7°C 100% - N16091.8 kmh N -- 29.98 in1015.2 mb 0.00 in0.0 mm 0.00 in/hr0.0 mm/hr 0.00 in0.0 mm
04:36 AM 65.7°F18.7°C 65.7°F18.7°C 100% - N16091.8 kmh N -- 29.98 in1015.2 mb 0.00 in0.0 mm 0.00 in/hr0.0 mm/hr 0.00 in0.0 mm
04:42 AM 65.7°F18.7°C 65.7°F18.7°C 100% - N16091.8 kmh N -- 29.98 in1015.2 mb 0.00 in0.0 mm 0.00 in/hr0.0 mm/hr 0.00 in0.0 mm
04:47 AM 65.7°F18.7°C 65.7°F18.7°C 100% - N16091.8 kmh N -- 29.98 in1015.2 mb 0.00 in0.0 mm 0.00 in/hr0.0 mm/hr 0.00 in0.0 mm
04:52 AM 65.5°F18.6°C 65.5°F18.6°C 100% - N16091.8 kmh N -- 29.98 in1015.2 mb 0.00 in0.0 mm 0.00 in/hr0.0 mm/hr 0.00 in0.0 mm
04:57 AM 65.5°F18.6°C 65.5°F18.6°C 100% - N16091.8 kmh N -- 29.98 in1015.2 mb 0.00 in0.0 mm 0.00 in/hr0.0 mm/hr 0.00 in0.0 mm
05:02 AM 65.5°F18.6°C 65.5°F18.6°C 100% - N16091.8 kmh N -- 29.98 in1015.2 mb 0.00 in0.0 mm 0.00 in/hr0.0 mm/hr 0.00 in0.0 mm
05:07 AM 65.5°F18.6°C 65.5°F18.6°C 100% - N16091.8 kmh N -- 29.98 in1015.2 mb 0.00 in0.0 mm 0.00 in/hr0.0 mm/hr 0.00 in0.0 mm
05:12 AM 65.3°F18.5°C 65.3°F18.5°C 100% - N16091.8 kmh N -- 29.98 in1015.2 mb 0.00 in0.0 mm 0.00 in/hr0.0 mm/hr 0.00 in0.0 mm
05:17 AM 65.1°F18.4°C 65.1°F18.4°C 100% - N16091.8 kmh N -- 29.98 in1015.2 mb 0.00 in0.0 mm 0.00 in/hr0.0 mm/hr 0.00 in0.0 mm
05:23 AM 65.1°F18.4°C 65.1°F18.4°C 100% - N16091.8 kmh N -- 29.98 in1015.2 mb 0.00 in0.0 mm 0.00 in/hr0.0 mm/hr 0.00 in0.0 mm
05:28 AM 64.9°F18.3°C 64.9°F18.3°C 100% - N16091.8 kmh N -- 29.98 in1015.2 mb 0.00 in0.0 mm 0.00 in/hr0.0 mm/hr 0.00 in0.0 mm
05:35 AM 64.9°F18.3°C 64.9°F18.3°C 100% - N16091.8 kmh N -- 29.98 in1015.2 mb 0.00 in0.0 mm 0.00 in/hr0.0 mm/hr 0.00 in0.0 mm
05:40 AM 64.8°F18.2°C 64.8°F18.2°C 100% - N16091.8 kmh N -- 29.98 in1015.2 mb 0.00 in0.0 mm 0.00 in/hr0.0 mm/hr 0.00 in0.0 mm
05:45 AM 64.8°F18.2°C 64.8°F18.2°C 100% - N16091.8 kmh N -- 29.98 in1015.2 mb 0.00 in0.0 mm 0.00 in/hr0.0 mm/hr 0.00 in0.0 mm
05:50 AM 64.8°F18.2°C 64.8°F18.2°C 100% - N16091.8 kmh N -- 29.98 in1015.2 mb 0.00 in0.0 mm 0.00 in/hr0.0 mm/hr 0.00 in0.0 mm
05:55 AM 64.6°F18.1°C 64.6°F18.1°C 100% - N16091.8 kmh N -- 29.98 in1015.2 mb 0.00 in0.0 mm 0.00 in/hr0.0 mm/hr 0.00 in0.0 mm
06:00 AM 64.4°F18.0°C 64.4°F18.0°C 100% - N16091.8 kmh N -- 29.98 in1015.2 mb 0.00 in0.0 mm 0.00 in/hr0.0 mm/hr 0.00 in0.0 mm
06:06 AM 64.2°F17.9°C 64.2°F17.9°C 100% - N16091.8 kmh N -- 29.98 in1015.2 mb 0.00 in0.0 mm 0.00 in/hr0.0 mm/hr 0.00 in0.0 mm
06:11 AM 64.2°F17.9°C 64.2°F17.9°C 100% - N16091.8 kmh N -- 29.98 in1015.2 mb 0.00 in0.0 mm 0.00 in/hr0.0 mm/hr 0.00 in0.0 mm
06:16 AM 64.0°F17.8°C 64.0°F17.8°C 100% - N16091.8 kmh N -- 29.98 in1015.2 mb 0.00 in0.0 mm 0.00 in/hr0.0 mm/hr 0.00 in0.0 mm
06:21 AM 63.9°F17.7°C 63.9°F17.7°C 100% - N16091.8 kmh N -- 29.98 in1015.2 mb 0.00 in0.0 mm 0.00 in/hr0.0 mm/hr 0.00 in0.0 mm
06:26 AM 63.9°F17.7°C 63.9°F17.7°C 100% - N16091.8 kmh N -- 29.98 in1015.2 mb 0.00 in0.0 mm 0.00 in/hr0.0 mm/hr 0.00 in0.0 mm
06:31 AM 63.7°F17.6°C 63.7°F17.6°C 100% - N16091.8 kmh N -- 29.98 in1015.2 mb 0.00 in0.0 mm 0.00 in/hr0.0 mm/hr 0.00 in0.0 mm
06:36 AM 63.7°F17.6°C 63.7°F17.6°C 100% - N16091.8 kmh N -- 29.98 in1015.2 mb 0.00 in0.0 mm 0.00 in/hr0.0 mm/hr 0.00 in0.0 mm
06:41 AM 63.5°F17.5°C 63.5°F17.5°C 100% - N16091.8 kmh N -- 29.98 in1015.2 mb 0.00 in0.0 mm 0.00 in/hr0.0 mm/hr 0.00 in0.0 mm
06:46 AM 63.5°F17.5°C 63.5°F17.5°C 100% - N16091.8 kmh N -- 29.98 in1015.2 mb 0.00 in0.0 mm 0.00 in/hr0.0 mm/hr 0.00 in0.0 mm
06:51 AM 63.5°F17.5°C 63.5°F17.5°C 100% - N16091.8 kmh N -- 29.98 in1015.2 mb 0.00 in0.0 mm 0.00 in/hr0.0 mm/hr 0.00 in0.0 mm
06:56 AM 63.1°F17.3°C 63.1°F17.3°C 100% - N16091.8 kmh N -- 29.98 in1015.2 mb 0.00 in0.0 mm 0.00 in/hr0.0 mm/hr 0.00 in0.0 mm
07:01 AM 63.1°F17.3°C 63.1°F17.3°C 100% - N16091.8 kmh N -- 29.98 in1015.2 mb 0.00 in0.0 mm 0.00 in/hr0.0 mm/hr 0.00 in0.0 mm
07:06 AM 63.0°F17.2°C 63.0°F17.2°C 100% - N16091.8 kmh N -- 29.98 in1015.2 mb 0.00 in0.0 mm 0.00 in/hr0.0 mm/hr 0.00 in0.0 mm
07:11 AM 62.8°F17.1°C 62.8°F17.1°C 100% - N16091.8 kmh N -- 29.98 in1015.2 mb 0.00 in0.0 mm 0.00 in/hr0.0 mm/hr 0.00 in0.0 mm
07:17 AM 62.8°F17.1°C 62.8°F17.1°C 100% - N16091.8 kmh N -- 30.01 in1016.3 mb 0.00 in0.0 mm 0.00 in/hr0.0 mm/hr 0.00 in0.0 mm
07:22 AM 62.6°F17.0°C 62.6°F17.0°C 100% - N16091.8 kmh N -- 30.01 in1016.3 mb 0.00 in0.0 mm 0.00 in/hr0.0 mm/hr 0.00 in0.0 mm
07:27 AM 62.6°F17.0°C 62.6°F17.0°C 100% - N16091.8 kmh N -- 30.01 in1016.3 mb 0.00 in0.0 mm 0.00 in/hr0.0 mm/hr 0.00 in0.0 mm
07:32 AM 62.4°F16.9°C 62.4°F16.9°C 100% - N16091.8 kmh N -- 30.01 in1016.3 mb 0.00 in0.0 mm 0.00 in/hr0.0 mm/hr 0.00 in0.0 mm
07:38 AM 62.4°F16.9°C 62.4°F16.9°C 100% - N16091.8 kmh N -- 30.01 in1016.3 mb 0.00 in0.0 mm 0.00 in/hr0.0 mm/hr 0.00 in0.0 mm
07:43 AM 62.2°F16.8°C 62.2°F16.8°C 100% - N16091.8 kmh N -- 30.01 in1016.3 mb 0.00 in0.0 mm 0.00 in/hr0.0 mm/hr 0.00 in0.0 mm
07:48 AM 62.2°F16.8°C 62.2°F16.8°C 100% - N16091.8 kmh N -- 30.01 in1016.3 mb 0.00 in0.0 mm 0.00 in/hr0.0 mm/hr 0.00 in0.0 mm
07:53 AM 62.2°F16.8°C 62.2°F16.8°C 100% - N16091.8 kmh N -- 30.01 in1016.3 mb 0.00 in0.0 mm 0.00 in/hr0.0 mm/hr 0.00 in0.0 mm
07:58 AM 62.2°F16.8°C 62.2°F16.8°C 100% - N16091.8 kmh N -- 30.01 in1016.3 mb 0.00 in0.0 mm 0.00 in/hr0.0 mm/hr 0.00 in0.0 mm
08:03 AM 62.4°F16.9°C 62.4°F16.9°C 100% - N16091.8 kmh N -- 30.01 in1016.3 mb 0.00 in0.0 mm 0.00 in/hr0.0 mm/hr 0.00 in0.0 mm
08:09 AM 62.4°F16.9°C 62.4°F16.9°C 100% - N16091.8 kmh N -- 30.01 in1016.3 mb 0.00 in0.0 mm 0.00 in/hr0.0 mm/hr 0.00 in0.0 mm
08:14 AM 62.4°F16.9°C 62.4°F16.9°C 100% - N16091.8 kmh N -- 30.01 in1016.3 mb 0.00 in0.0 mm 0.00 in/hr0.0 mm/hr 0.00 in0.0 mm
08:19 AM 62.6°F17.0°C 62.6°F17.0°C 100% - N16091.8 kmh N -- 30.01 in1016.3 mb 0.00 in0.0 mm 0.00 in/hr0.0 mm/hr 0.00 in0.0 mm
08:24 AM 62.6°F17.0°C 62.6°F17.0°C 100% - N16091.8 kmh N -- 30.01 in1016.3 mb 0.00 in0.0 mm 0.00 in/hr0.0 mm/hr 0.00 in0.0 mm
08:31 AM 62.6°F17.0°C 62.6°F17.0°C 100% - N16091.8 kmh N -- 30.01 in1016.3 mb 0.00 in0.0 mm 0.00 in/hr0.0 mm/hr 0.00 in0.0 mm
08:36 AM 62.6°F17.0°C 62.6°F17.0°C 100% - N16091.8 kmh N -- 30.01 in1016.3 mb 0.00 in0.0 mm 0.00 in/hr0.0 mm/hr 0.00 in0.0 mm
08:42 AM 62.6°F17.0°C 62.6°F17.0°C 100% - N16091.8 kmh N -- 30.01 in1016.3 mb 0.00 in0.0 mm 0.00 in/hr0.0 mm/hr 0.00 in0.0 mm
08:47 AM 62.6°F17.0°C 62.6°F17.0°C 100% - N16091.8 kmh N -- 30.01 in1016.3 mb 0.00 in0.0 mm 0.00 in/hr0.0 mm/hr 0.00 in0.0 mm
08:52 AM 62.6°F17.0°C 62.6°F17.0°C 100% - N16091.8 kmh N -- 30.01 in1016.3 mb 0.00 in0.0 mm 0.00 in/hr0.0 mm/hr 0.00 in0.0 mm
08:57 AM 62.6°F17.0°C 62.6°F17.0°C 100% - N16091.8 kmh N -- 30.01 in1016.3 mb 0.00 in0.0 mm 0.00 in/hr0.0 mm/hr 0.00 in0.0 mm
09:03 AM 62.8°F17.1°C 62.8°F17.1°C 100% - N16091.8 kmh N -- 30.01 in1016.3 mb 0.00 in0.0 mm 0.00 in/hr0.0 mm/hr 0.00 in0.0 mm
09:08 AM 62.8°F17.1°C 62.8°F17.1°C 100% - N16091.8 kmh N -- 30.01 in1016.3 mb 0.00 in0.0 mm 0.00 in/hr0.0 mm/hr 0.00 in0.0 mm
09:15 AM 63.0°F17.2°C 63.0°F17.2°C 100% - N16091.8 kmh N -- 30.01 in1016.3 mb 0.00 in0.0 mm 0.00 in/hr0.0 mm/hr 0.00 in0.0 mm
09:20 AM 63.0°F17.2°C 63.0°F17.2°C 100% - N16091.8 kmh N -- 30.01 in1016.3 mb 0.00 in0.0 mm 0.00 in/hr0.0 mm/hr 0.00 in0.0 mm
09:25 AM 63.0°F17.2°C 63.0°F17.2°C 100% - N16091.8 kmh N -- 30.01 in1016.3 mb 0.00 in0.0 mm 0.00 in/hr0.0 mm/hr 0.00 in0.0 mm
09:30 AM 63.0°F17.2°C 63.0°F17.2°C 100% - N16091.8 kmh N -- 30.01 in1016.3 mb 0.00 in0.0 mm 0.00 in/hr0.0 mm/hr 0.00 in0.0 mm
09:36 AM 63.1°F17.3°C 63.1°F17.3°C 100% - N16091.8 kmh N -- 30.01 in1016.3 mb 0.00 in0.0 mm 0.00 in/hr0.0 mm/hr 0.00 in0.0 mm
09:41 AM 63.1°F17.3°C 63.1°F17.3°C 100% - N16091.8 kmh N -- 30.01 in1016.3 mb 0.00 in0.0 mm 0.00 in/hr0.0 mm/hr 0.00 in0.0 mm
09:46 AM 63.1°F17.3°C 63.1°F17.3°C 100% - N16091.8 kmh N -- 30.01 in1016.3 mb 0.00 in0.0 mm 0.00 in/hr0.0 mm/hr 0.00 in0.0 mm
09:51 AM 63.3°F17.4°C 63.3°F17.4°C 100% - N16091.8 kmh N -- 30.01 in1016.3 mb 0.00 in0.0 mm 0.00 in/hr0.0 mm/hr 0.00 in0.0 mm
09:56 AM 63.3°F17.4°C 63.3°F17.4°C 100% - N16091.8 kmh N -- 30.01 in1016.3 mb 0.00 in0.0 mm 0.00 in/hr0.0 mm/hr 0.00 in0.0 mm
10:01 AM 63.3°F17.4°C 63.3°F17.4°C 100% - N16091.8 kmh N -- 30.01 in1016.3 mb 0.00 in0.0 mm 0.00 in/hr0.0 mm/hr 0.00 in0.0 mm
10:06 AM 63.5°F17.5°C 63.5°F17.5°C 100% - N16091.8 kmh N -- 30.01 in1016.3 mb 0.00 in0.0 mm 0.00 in/hr0.0 mm/hr 0.00 in0.0 mm
10:11 AM 63.5°F17.5°C 63.5°F17.5°C 100% - N16091.8 kmh N -- 30.01 in1016.3 mb 0.00 in0.0 mm 0.00 in/hr0.0 mm/hr 0.00 in0.0 mm
10:17 AM 63.7°F17.6°C 63.7°F17.6°C 100% - N16091.8 kmh N -- 30.01 in1016.3 mb 0.00 in0.0 mm 0.00 in/hr0.0 mm/hr 0.00 in0.0 mm
10:22 AM 63.9°F17.7°C 63.9°F17.7°C 100% - N16091.8 kmh N -- 30.01 in1016.3 mb 0.00 in0.0 mm 0.00 in/hr0.0 mm/hr 0.00 in0.0 mm
10:28 AM 63.9°F17.7°C 63.9°F17.7°C 100% - N16091.8 kmh N -- 30.01 in1016.3 mb 0.00 in0.0 mm 0.00 in/hr0.0 mm/hr 0.00 in0.0 mm
10:33 AM 64.0°F17.8°C 64.0°F17.8°C 100% - N16091.8 kmh N -- 30.01 in1016.3 mb 0.00 in0.0 mm 0.00 in/hr0.0 mm/hr 0.00 in0.0 mm
10:39 AM 64.0°F17.8°C 64.0°F17.8°C 100% - N16091.8 kmh N -- 30.01 in1016.3 mb 0.00 in0.0 mm 0.00 in/hr0.0 mm/hr 0.00 in0.0 mm
10:44 AM 64.2°F17.9°C 64.2°F17.9°C 100% - N16091.8 kmh N -- 30.01 in1016.3 mb 0.00 in0.0 mm 0.00 in/hr0.0 mm/hr 0.00 in0.0 mm
10:50 AM 64.2°F17.9°C 64.2°F17.9°C 100% - N16091.8 kmh N -- 30.01 in1016.3 mb 0.00 in0.0 mm 0.00 in/hr0.0 mm/hr 0.00 in0.0 mm
10:55 AM 64.4°F18.0°C 64.4°F18.0°C 100% - N16091.8 kmh N -- 30.01 in1016.3 mb 0.00 in0.0 mm 0.00 in/hr0.0 mm/hr 0.00 in0.0 mm
11:00 AM 64.4°F18.0°C 64.4°F18.0°C 100% - N16091.8 kmh N -- 30.01 in1016.3 mb 0.00 in0.0 mm 0.00 in/hr0.0 mm/hr 0.00 in0.0 mm
11:05 AM 64.6°F18.1°C 64.6°F18.1°C 100% - N16091.8 kmh N -- 30.01 in1016.3 mb 0.00 in0.0 mm 0.00 in/hr0.0 mm/hr 0.00 in0.0 mm
11:11 AM 64.8°F18.2°C 64.8°F18.2°C 100% - N16091.8 kmh N -- 30.01 in1016.3 mb 0.00 in0.0 mm 0.00 in/hr0.0 mm/hr 0.00 in0.0 mm
11:16 AM 64.9°F18.3°C 64.9°F18.3°C 100% - N16091.8 kmh N -- 30.01 in1016.3 mb 0.00 in0.0 mm 0.00 in/hr0.0 mm/hr 0.00 in0.0 mm
11:21 AM 65.1°F18.4°C 65.1°F18.4°C 100% - N16091.8 kmh N -- 30.01 in1016.3 mb 0.00 in0.0 mm 0.00 in/hr0.0 mm/hr 0.00 in0.0 mm
11:26 AM 65.1°F18.4°C 65.1°F18.4°C 100% - N16091.8 kmh N -- 30.01 in1016.3 mb 0.00 in0.0 mm 0.00 in/hr0.0 mm/hr 0.00 in0.0 mm
11:31 AM 65.1°F18.4°C 65.1°F18.4°C 100% - N16091.8 kmh N -- 30.01 in1016.3 mb 0.00 in0.0 mm 0.00 in/hr0.0 mm/hr 0.00 in0.0 mm
11:36 AM 65.3°F18.5°C 65.3°F18.5°C 100% - N16091.8 kmh N -- 30.01 in1016.3 mb 0.00 in0.0 mm 0.00 in/hr0.0 mm/hr 0.00 in0.0 mm
11:41 AM 65.5°F18.6°C 65.5°F18.6°C 100% - N16091.8 kmh N -- 30.01 in1016.3 mb 0.00 in0.0 mm 0.00 in/hr0.0 mm/hr 0.00 in0.0 mm
11:46 AM 65.5°F18.6°C 65.5°F18.6°C 100% - N16091.8 kmh N -- 30.01 in1016.3 mb 0.00 in0.0 mm 0.00 in/hr0.0 mm/hr 0.00 in0.0 mm
11:52 AM 65.7°F18.7°C 65.7°F18.7°C 100% - N16091.8 kmh N -- 30.01 in1016.3 mb 0.00 in0.0 mm 0.00 in/hr0.0 mm/hr 0.00 in0.0 mm
11:57 AM 65.7°F18.7°C 65.7°F18.7°C 100% - N16091.8 kmh N -- 30.01 in1016.3 mb 0.00 in0.0 mm 0.00 in/hr0.0 mm/hr 0.00 in0.0 mm
12:03 PM 65.8°F18.8°C 65.8°F18.8°C 100% - N16091.8 kmh N -- 30.01 in1016.3 mb 0.00 in0.0 mm 0.00 in/hr0.0 mm/hr 0.00 in0.0 mm
12:08 PM 65.8°F18.8°C 65.8°F18.8°C 100% - N16091.8 kmh N -- 30.01 in1016.3 mb 0.00 in0.0 mm 0.00 in/hr0.0 mm/hr 0.00 in0.0 mm
12:13 PM 65.8°F18.8°C 65.8°F18.8°C 100% - N16091.8 kmh N -- 30.01 in1016.3 mb 0.00 in0.0 mm 0.00 in/hr0.0 mm/hr 0.00 in0.0 mm
12:18 PM 65.8°F18.8°C 65.8°F18.8°C 100% - N16091.8 kmh N -- 30.01 in1016.3 mb 0.00 in0.0 mm 0.00 in/hr0.0 mm/hr 0.00 in0.0 mm
12:23 PM 66.0°F18.9°C 66.0°F18.9°C 100% - N16091.8 kmh N -- 30.01 in1016.3 mb 0.00 in0.0 mm 0.00 in/hr0.0 mm/hr 0.00 in0.0 mm
12:28 PM 66.0°F18.9°C 66.0°F18.9°C 100% - N16091.8 kmh N -- 30.01 in1016.3 mb 0.00 in0.0 mm 0.00 in/hr0.0 mm/hr 0.00 in0.0 mm
12:37 PM 66.0°F18.9°C 66.0°F18.9°C 100% - N16091.8 kmh N -- 30.01 in1016.3 mb 0.00 in0.0 mm 0.00 in/hr0.0 mm/hr 0.00 in0.0 mm
12:42 PM 66.0°F18.9°C 66.0°F18.9°C 100% - N16091.8 kmh N -- 30.01 in1016.3 mb 0.00 in0.0 mm 0.00 in/hr0.0 mm/hr 0.00 in0.0 mm
12:47 PM 66.0°F18.9°C 66.0°F18.9°C 100% - N16091.8 kmh N -- 30.01 in1016.3 mb 0.00 in0.0 mm 0.00 in/hr0.0 mm/hr 0.00 in0.0 mm
12:52 PM 66.2°F19.0°C 66.2°F19.0°C 100% - N16091.8 kmh N -- 30.01 in1016.3 mb 0.00 in0.0 mm 0.00 in/hr0.0 mm/hr 0.00 in0.0 mm
12:58 PM 66.2°F19.0°C 66.2°F19.0°C 100% - N16091.8 kmh N -- 30.01 in1016.3 mb 0.00 in0.0 mm 0.00 in/hr0.0 mm/hr 0.00 in0.0 mm
01:03 PM 66.4°F19.1°C 66.4°F19.1°C 100% - N16091.8 kmh N -- 30.01 in1016.3 mb 0.00 in0.0 mm 0.00 in/hr0.0 mm/hr 0.00 in0.0 mm
01:08 PM 66.4°F19.1°C 66.4°F19.1°C 100% - N16091.8 kmh N -- 30.01 in1016.3 mb 0.00 in0.0 mm 0.00 in/hr0.0 mm/hr 0.00 in0.0 mm
01:13 PM 66.6°F19.2°C 66.6°F19.2°C 100% - N16091.8 kmh N -- 29.98 in1015.2 mb 0.00 in0.0 mm 0.00 in/hr0.0 mm/hr 0.00 in0.0 mm
01:19 PM 66.7°F19.3°C 66.7°F19.3°C 100% - N16091.8 kmh N -- 29.98 in1015.2 mb 0.00 in0.0 mm 0.00 in/hr0.0 mm/hr 0.00 in0.0 mm
01:24 PM 66.9°F19.4°C 66.9°F19.4°C 100% - N16091.8 kmh N -- 29.98 in1015.2 mb 0.00 in0.0 mm 0.00 in/hr0.0 mm/hr 0.00 in0.0 mm
01:29 PM 67.1°F19.5°C 67.1°F19.5°C 100% - N16091.8 kmh N -- 29.98 in1015.2 mb 0.00 in0.0 mm 0.00 in/hr0.0 mm/hr 0.00 in0.0 mm
01:34 PM 67.8°F19.9°C 67.8°F19.9°C 100% - N16091.8 kmh N -- 29.98 in1015.2 mb 0.00 in0.0 mm 0.00 in/hr0.0 mm/hr 0.00 in0.0 mm
01:39 PM 68.7°F20.4°C 68.7°F20.4°C 100% - N16091.8 kmh N -- 29.98 in1015.2 mb 0.00 in0.0 mm 0.00 in/hr0.0 mm/hr 0.00 in0.0 mm
01:44 PM 69.3°F20.7°C 69.3°F20.7°C 100% - N16091.8 kmh N -- 29.98 in1015.2 mb 0.00 in0.0 mm 0.00 in/hr0.0 mm/hr 0.00 in0.0 mm
01:49 PM 69.4°F20.8°C 69.4°F20.8°C 100% - N16091.8 kmh N -- 29.98 in1015.2 mb 0.00 in0.0 mm 0.00 in/hr0.0 mm/hr 0.00 in0.0 mm
01:54 PM 69.4°F20.8°C 69.4°F20.8°C 100% - N16091.8 kmh N -- 29.98 in1015.2 mb 0.00 in0.0 mm 0.00 in/hr0.0 mm/hr 0.00 in0.0 mm
01:59 PM 69.4°F20.8°C 69.4°F20.8°C 100% - N16091.8 kmh N -- 29.98 in1015.2 mb 0.00 in0.0 mm 0.00 in/hr0.0 mm/hr 0.00 in0.0 mm
02:04 PM 69.3°F20.7°C 69.3°F20.7°C 100% - N16091.8 kmh N -- 29.98 in1015.2 mb 0.00 in0.0 mm 0.00 in/hr0.0 mm/hr 0.00 in0.0 mm
02:10 PM 69.1°F20.6°C 69.1°F20.6°C 100% - N16091.8 kmh N -- 29.98 in1015.2 mb 0.00 in0.0 mm 0.00 in/hr0.0 mm/hr 0.00 in0.0 mm
02:15 PM 68.9°F20.5°C 68.9°F20.5°C 100% - N16091.8 kmh N -- 29.98 in1015.2 mb 0.00 in0.0 mm 0.00 in/hr0.0 mm/hr 0.00 in0.0 mm
02:21 PM 68.9°F20.5°C 68.9°F20.5°C 100% - N16091.8 kmh N -- 29.98 in1015.2 mb 0.00 in0.0 mm 0.00 in/hr0.0 mm/hr 0.00 in0.0 mm
02:26 PM 69.1°F20.6°C 69.1°F20.6°C 100% - N16091.8 kmh N -- 29.98 in1015.2 mb 0.00 in0.0 mm 0.00 in/hr0.0 mm/hr 0.00 in0.0 mm
02:31 PM 69.3°F20.7°C 69.3°F20.7°C 100% - N16091.8 kmh N -- 29.98 in1015.2 mb 0.00 in0.0 mm 0.00 in/hr0.0 mm/hr 0.00 in0.0 mm
02:36 PM 70.0°F21.1°C 70.0°F21.1°C 100% - N16091.8 kmh N -- 29.98 in1015.2 mb 0.00 in0.0 mm 0.00 in/hr0.0 mm/hr 0.00 in0.0 mm
02:41 PM 70.2°F21.2°C 70.2°F21.2°C 100% - N16091.8 kmh N -- 29.98 in1015.2 mb 0.00 in0.0 mm 0.00 in/hr0.0 mm/hr 0.00 in0.0 mm
02:46 PM 70.5°F21.4°C 70.5°F21.4°C 100% - N16091.8 kmh N -- 29.98 in1015.2 mb 0.00 in0.0 mm 0.00 in/hr0.0 mm/hr 0.00 in0.0 mm
02:52 PM 70.5°F21.4°C 70.5°F21.4°C 100% - N16091.8 kmh N -- 29.98 in1015.2 mb 0.00 in0.0 mm 0.00 in/hr0.0 mm/hr 0.00 in0.0 mm
02:57 PM 70.7°F21.5°C 70.7°F21.5°C 100% - N16091.8 kmh N -- 29.98 in1015.2 mb 0.00 in0.0 mm 0.00 in/hr0.0 mm/hr 0.00 in0.0 mm
03:02 PM 70.7°F21.5°C 70.7°F21.5°C 100% - N16091.8 kmh N -- 29.98 in1015.2 mb 0.00 in0.0 mm 0.00 in/hr0.0 mm/hr 0.00 in0.0 mm
03:07 PM 70.7°F21.5°C 70.7°F21.5°C 100% - N16091.8 kmh N -- 29.98 in1015.2 mb 0.00 in0.0 mm 0.00 in/hr0.0 mm/hr 0.00 in0.0 mm
03:12 PM 70.5°F21.4°C 70.5°F21.4°C 100% - N16091.8 kmh N -- 29.95 in1014.2 mb 0.00 in0.0 mm 0.00 in/hr0.0 mm/hr 0.00 in0.0 mm
03:17 PM 70.5°F21.4°C 70.5°F21.4°C 100% - N16091.8 kmh N -- 29.95 in1014.2 mb 0.00 in0.0 mm 0.00 in/hr0.0 mm/hr 0.00 in0.0 mm
03:22 PM 70.7°F21.5°C 70.7°F21.5°C 100% - N16091.8 kmh N -- 29.95 in1014.2 mb 0.00 in0.0 mm 0.00 in/hr0.0 mm/hr 0.00 in0.0 mm
03:27 PM 70.7°F21.5°C 70.7°F21.5°C 100% - N16091.8 kmh N -- 29.95 in1014.2 mb 0.00 in0.0 mm 0.00 in/hr0.0 mm/hr 0.00 in0.0 mm
03:32 PM 70.9°F21.6°C 70.9°F21.6°C 100% - N16091.8 kmh N -- 29.95 in1014.2 mb 0.00 in0.0 mm 0.00 in/hr0.0 mm/hr 0.00 in0.0 mm
03:37 PM 71.1°F21.7°C 71.1°F21.7°C 100% - N16091.8 kmh N -- 29.95 in1014.2 mb 0.00 in0.0 mm 0.00 in/hr0.0 mm/hr 0.00 in0.0 mm
03:43 PM 71.2°F21.8°C 71.2°F21.8°C 100% - N16091.8 kmh N -- 29.98 in1015.2 mb 0.00 in0.0 mm 0.00 in/hr0.0 mm/hr 0.00 in0.0 mm
03:48 PM 71.4°F21.9°C 71.4°F21.9°C 100% - N16091.8 kmh N -- 29.98 in1015.2 mb 0.00 in0.0 mm 0.00 in/hr0.0 mm/hr 0.00 in0.0 mm
03:54 PM 71.2°F21.8°C 71.2°F21.8°C 100% - N16091.8 kmh N -- 29.98 in1015.2 mb 0.00 in0.0 mm 0.00 in/hr0.0 mm/hr 0.00 in0.0 mm
03:59 PM 71.2°F21.8°C 71.2°F21.8°C 100% - N16091.8 kmh N -- 29.98 in1015.2 mb 0.00 in0.0 mm 0.00 in/hr0.0 mm/hr 0.00 in0.0 mm
04:05 PM 71.2°F21.8°C 71.2°F21.8°C 100% - N16091.8 kmh N -- 29.98 in1015.2 mb 0.00 in0.0 mm 0.00 in/hr0.0 mm/hr 0.00 in0.0 mm
04:10 PM 71.2°F21.8°C 71.2°F21.8°C 100% - N16091.8 kmh N -- 29.98 in1015.2 mb 0.00 in0.0 mm 0.00 in/hr0.0 mm/hr 0.00 in0.0 mm
04:15 PM 71.2°F21.8°C 71.2°F21.8°C 100% - N16091.8 kmh N -- 29.95 in1014.2 mb 0.00 in0.0 mm 0.00 in/hr0.0 mm/hr 0.00 in0.0 mm
04:20 PM 71.2°F21.8°C 71.2°F21.8°C 100% - N16091.8 kmh N -- 29.95 in1014.2 mb 0.00 in0.0 mm 0.00 in/hr0.0 mm/hr 0.00 in0.0 mm
04:25 PM 71.6°F22.0°C 71.6°F22.0°C 100% - N16091.8 kmh N -- 29.95 in1014.2 mb 0.00 in0.0 mm 0.00 in/hr0.0 mm/hr 0.00 in0.0 mm
04:30 PM 71.8°F22.1°C 71.8°F22.1°C 100% - N16091.8 kmh N -- 29.95 in1014.2 mb 0.00 in0.0 mm 0.00 in/hr0.0 mm/hr 0.00 in0.0 mm
04:35 PM 71.8°F22.1°C 71.8°F22.1°C 100% - N16091.8 kmh N -- 29.95 in1014.2 mb 0.00 in0.0 mm 0.00 in/hr0.0 mm/hr 0.00 in0.0 mm
04:40 PM 71.8°F22.1°C 71.8°F22.1°C 100% - N16091.8 kmh N -- 29.95 in1014.2 mb 0.00 in0.0 mm 0.00 in/hr0.0 mm/hr 0.00 in0.0 mm
04:45 PM 72.1°F22.3°C 72.1°F22.3°C 100% - N16091.8 kmh N -- 29.95 in1014.2 mb 0.00 in0.0 mm 0.00 in/hr0.0 mm/hr 0.00 in0.0 mm
04:50 PM 72.1°F22.3°C 72.1°F22.3°C 100% - N16091.8 kmh N -- 29.95 in1014.2 mb 0.00 in0.0 mm 0.00 in/hr0.0 mm/hr 0.00 in0.0 mm
04:56 PM 72.3°F22.4°C 72.3°F22.4°C 100% - N16091.8 kmh N -- 29.95 in1014.2 mb 0.00 in0.0 mm 0.00 in/hr0.0 mm/hr 0.00 in0.0 mm
05:01 PM 72.3°F22.4°C 72.3°F22.4°C 100% - N16091.8 kmh N -- 29.95 in1014.2 mb 0.00 in0.0 mm 0.00 in/hr0.0 mm/hr 0.00 in0.0 mm
05:07 PM 72.3°F22.4°C 72.3°F22.4°C 100% - N16091.8 kmh N -- 29.95 in1014.2 mb 0.00 in0.0 mm 0.00 in/hr0.0 mm/hr 0.00 in0.0 mm
05:12 PM 72.3°F22.4°C 72.3°F22.4°C 100% - N16091.8 kmh N -- 29.95 in1014.2 mb 0.00 in0.0 mm 0.00 in/hr0.0 mm/hr 0.00 in0.0 mm
05:17 PM 72.5°F22.5°C 72.5°F22.5°C 100% - N16091.8 kmh N -- 29.95 in1014.2 mb 0.00 in0.0 mm 0.00 in/hr0.0 mm/hr 0.00 in0.0 mm
05:22 PM 72.3°F22.4°C 72.3°F22.4°C 100% - N16091.8 kmh N -- 29.95 in1014.2 mb 0.00 in0.0 mm 0.00 in/hr0.0 mm/hr 0.00 in0.0 mm
05:27 PM 72.3°F22.4°C 72.3°F22.4°C 100% - N16091.8 kmh N -- 29.92 in1013.2 mb 0.00 in0.0 mm 0.00 in/hr0.0 mm/hr 0.00 in0.0 mm
05:32 PM 72.3°F22.4°C 72.3°F22.4°C 100% - N16091.8 kmh N -- 29.92 in1013.2 mb 0.00 in0.0 mm 0.00 in/hr0.0 mm/hr 0.00 in0.0 mm
05:37 PM 72.3°F22.4°C 72.3°F22.4°C 100% - N16091.8 kmh N -- 29.92 in1013.2 mb 0.00 in0.0 mm 0.00 in/hr0.0 mm/hr 0.00 in0.0 mm
05:42 PM 72.3°F22.4°C 72.3°F22.4°C 100% - N16091.8 kmh N -- 29.92 in1013.2 mb 0.00 in0.0 mm 0.00 in/hr0.0 mm/hr 0.00 in0.0 mm
05:47 PM 72.3°F22.4°C 72.3°F22.4°C 100% - N16091.8 kmh N -- 29.92 in1013.2 mb 0.00 in0.0 mm 0.00 in/hr0.0 mm/hr 0.00 in0.0 mm
05:52 PM 72.1°F22.3°C 72.1°F22.3°C 100% - N16091.8 kmh N -- 29.92 in1013.2 mb 0.00 in0.0 mm 0.00 in/hr0.0 mm/hr 0.00 in0.0 mm
05:58 PM 71.8°F22.1°C 71.8°F22.1°C 100% - N16091.8 kmh N -- 29.95 in1014.2 mb 0.00 in0.0 mm 0.00 in/hr0.0 mm/hr 0.00 in0.0 mm
06:03 PM 71.6°F22.0°C 71.6°F22.0°C 100% - N16091.8 kmh N -- 29.95 in1014.2 mb 0.00 in0.0 mm 0.00 in/hr0.0 mm/hr 0.00 in0.0 mm
06:08 PM 71.4°F21.9°C 71.4°F21.9°C 100% - N16091.8 kmh N -- 29.95 in1014.2 mb 0.00 in0.0 mm 0.00 in/hr0.0 mm/hr 0.00 in0.0 mm
06:13 PM 71.4°F21.9°C 71.4°F21.9°C 100% - N16091.8 kmh N -- 29.95 in1014.2 mb 0.00 in0.0 mm 0.00 in/hr0.0 mm/hr 0.00 in0.0 mm
06:18 PM 71.2°F21.8°C 71.2°F21.8°C 100% - N16091.8 kmh N -- 29.95 in1014.2 mb 0.00 in0.0 mm 0.00 in/hr0.0 mm/hr 0.00 in0.0 mm
06:23 PM 71.1°F21.7°C 71.1°F21.7°C 100% - N16091.8 kmh N -- 29.95 in1014.2 mb 0.00 in0.0 mm 0.00 in/hr0.0 mm/hr 0.00 in0.0 mm
06:28 PM 70.7°F21.5°C 70.7°F21.5°C 100% - N16091.8 kmh N -- 29.95 in1014.2 mb 0.00 in0.0 mm 0.00 in/hr0.0 mm/hr 0.00 in0.0 mm
06:33 PM 70.5°F21.4°C 70.5°F21.4°C 100% - N16091.8 kmh N -- 29.95 in1014.2 mb 0.00 in0.0 mm 0.00 in/hr0.0 mm/hr 0.00 in0.0 mm
06:38 PM 70.5°F21.4°C 70.5°F21.4°C 100% - N16091.8 kmh N -- 29.95 in1014.2 mb 0.00 in0.0 mm 0.00 in/hr0.0 mm/hr 0.00 in0.0 mm
06:43 PM 70.3°F21.3°C 70.3°F21.3°C 100% - N16091.8 kmh N -- 29.95 in1014.2 mb 0.00 in0.0 mm 0.00 in/hr0.0 mm/hr 0.00 in0.0 mm
06:49 PM 70.3°F21.3°C 70.3°F21.3°C 100% - N16091.8 kmh N -- 29.95 in1014.2 mb 0.00 in0.0 mm 0.00 in/hr0.0 mm/hr 0.00 in0.0 mm
06:54 PM 70.2°F21.2°C 70.2°F21.2°C 100% - N16091.8 kmh N -- 29.95 in1014.2 mb 0.00 in0.0 mm 0.00 in/hr0.0 mm/hr 0.00 in0.0 mm
07:00 PM 70.2°F21.2°C 70.2°F21.2°C 100% - N16091.8 kmh N -- 29.95 in1014.2 mb 0.00 in0.0 mm 0.00 in/hr0.0 mm/hr 0.00 in0.0 mm
07:05 PM 70.2°F21.2°C 70.2°F21.2°C 100% - N16091.8 kmh N -- 29.95 in1014.2 mb 0.00 in0.0 mm 0.00 in/hr0.0 mm/hr 0.00 in0.0 mm
07:10 PM 70.0°F21.1°C 70.0°F21.1°C 100% - N16091.8 kmh N -- 29.95 in1014.2 mb 0.00 in0.0 mm 0.00 in/hr0.0 mm/hr 0.00 in0.0 mm
07:15 PM 69.8°F21.0°C 69.8°F21.0°C 100% - N16091.8 kmh N -- 29.95 in1014.2 mb 0.00 in0.0 mm 0.00 in/hr0.0 mm/hr 0.00 in0.0 mm
07:20 PM 69.8°F21.0°C 69.8°F21.0°C 100% - N16091.8 kmh N -- 29.95 in1014.2 mb 0.00 in0.0 mm 0.00 in/hr0.0 mm/hr 0.00 in0.0 mm
07:25 PM 69.6°F20.9°C 69.6°F20.9°C 100% - N16091.8 kmh N -- 29.95 in1014.2 mb 0.00 in0.0 mm 0.00 in/hr0.0 mm/hr 0.00 in0.0 mm
07:30 PM 69.4°F20.8°C 69.4°F20.8°C 100% - N16091.8 kmh N -- 29.95 in1014.2 mb 0.00 in0.0 mm 0.00 in/hr0.0 mm/hr 0.00 in0.0 mm
07:35 PM 69.3°F20.7°C 69.3°F20.7°C 100% - N16091.8 kmh N -- 29.95 in1014.2 mb 0.00 in0.0 mm 0.00 in/hr0.0 mm/hr 0.00 in0.0 mm
07:40 PM 68.9°F20.5°C 68.9°F20.5°C 100% - N16091.8 kmh N -- 29.95 in1014.2 mb 0.00 in0.0 mm 0.00 in/hr0.0 mm/hr 0.00 in0.0 mm
07:45 PM 68.7°F20.4°C 68.7°F20.4°C 100% - N16091.8 kmh N -- 29.95 in1014.2 mb 0.00 in0.0 mm 0.00 in/hr0.0 mm/hr 0.00 in0.0 mm
07:50 PM 68.5°F20.3°C 68.5°F20.3°C 100% - N16091.8 kmh N -- 29.95 in1014.2 mb 0.00 in0.0 mm 0.00 in/hr0.0 mm/hr 0.00 in0.0 mm
07:55 PM 68.2°F20.1°C 68.2°F20.1°C 100% - N16091.8 kmh N -- 29.95 in1014.2 mb 0.00 in0.0 mm 0.00 in/hr0.0 mm/hr 0.00 in0.0 mm
08:00 PM 68.0°F20.0°C 68.0°F20.0°C 100% - N16091.8 kmh N -- 29.95 in1014.2 mb 0.00 in0.0 mm 0.00 in/hr0.0 mm/hr 0.00 in0.0 mm
08:05 PM 67.8°F19.9°C 67.8°F19.9°C 100% - N16091.8 kmh N -- 29.95 in1014.2 mb 0.00 in0.0 mm 0.00 in/hr0.0 mm/hr 0.00 in0.0 mm
08:10 PM 67.6°F19.8°C 67.6°F19.8°C 100% - N16091.8 kmh N -- 29.95 in1014.2 mb 0.00 in0.0 mm 0.00 in/hr0.0 mm/hr 0.00 in0.0 mm
08:15 PM 67.5°F19.7°C 67.5°F19.7°C 100% - N16091.8 kmh N -- 29.95 in1014.2 mb 0.00 in0.0 mm 0.00 in/hr0.0 mm/hr 0.00 in0.0 mm
08:20 PM 67.3°F19.6°C 67.3°F19.6°C 100% - N16091.8 kmh N -- 29.95 in1014.2 mb 0.00 in0.0 mm 0.00 in/hr0.0 mm/hr 0.00 in0.0 mm
08:25 PM 67.3°F19.6°C 67.3°F19.6°C 100% - N16091.8 kmh N -- 29.95 in1014.2 mb 0.00 in0.0 mm 0.00 in/hr0.0 mm/hr 0.00 in0.0 mm
08:30 PM 66.9°F19.4°C 66.9°F19.4°C 100% - N16091.8 kmh N -- 29.95 in1014.2 mb 0.00 in0.0 mm 0.00 in/hr0.0 mm/hr 0.00 in0.0 mm
08:35 PM 66.7°F19.3°C 66.7°F19.3°C 100% - N16091.8 kmh N -- 29.95 in1014.2 mb 0.00 in0.0 mm 0.00 in/hr0.0 mm/hr 0.00 in0.0 mm
08:40 PM 66.6°F19.2°C 66.6°F19.2°C 100% - N16091.8 kmh N -- 29.95 in1014.2 mb 0.00 in0.0 mm 0.00 in/hr0.0 mm/hr 0.00 in0.0 mm
08:45 PM 66.6°F19.2°C 66.6°F19.2°C 100% - N16091.8 kmh N -- 29.95 in1014.2 mb 0.00 in0.0 mm 0.00 in/hr0.0 mm/hr 0.00 in0.0 mm
08:51 PM 66.4°F19.1°C 66.4°F19.1°C 100% - N16091.8 kmh N -- 29.95 in1014.2 mb 0.00 in0.0 mm 0.00 in/hr0.0 mm/hr 0.00 in0.0 mm
08:56 PM 66.2°F19.0°C 66.2°F19.0°C 100% - N16091.8 kmh N -- 29.95 in1014.2 mb 0.00 in0.0 mm 0.00 in/hr0.0 mm/hr 0.00 in0.0 mm
09:01 PM 66.0°F18.9°C 66.0°F18.9°C 100% - N16091.8 kmh N -- 29.98 in1015.2 mb 0.00 in0.0 mm 0.00 in/hr0.0 mm/hr 0.00 in0.0 mm
09:06 PM 65.8°F18.8°C 65.8°F18.8°C 100% - N16091.8 kmh N -- 29.98 in1015.2 mb 0.00 in0.0 mm 0.00 in/hr0.0 mm/hr 0.00 in0.0 mm
09:11 PM 65.8°F18.8°C 65.8°F18.8°C 100% - N16091.8 kmh N -- 29.98 in1015.2 mb 0.00 in0.0 mm 0.00 in/hr0.0 mm/hr 0.00 in0.0 mm
09:16 PM 65.8°F18.8°C 65.8°F18.8°C 100% - N16091.8 kmh N -- 29.98 in1015.2 mb 0.00 in0.0 mm 0.00 in/hr0.0 mm/hr 0.00 in0.0 mm
09:21 PM 65.7°F18.7°C 65.7°F18.7°C 100% - N16091.8 kmh N -- 29.98 in1015.2 mb 0.00 in0.0 mm 0.00 in/hr0.0 mm/hr 0.00 in0.0 mm
09:26 PM 65.7°F18.7°C 65.7°F18.7°C 100% - N16091.8 kmh N -- 29.98 in1015.2 mb 0.00 in0.0 mm 0.00 in/hr0.0 mm/hr 0.00 in0.0 mm
09:31 PM 65.7°F18.7°C 65.7°F18.7°C 100% - N16091.8 kmh N -- 29.98 in1015.2 mb 0.00 in0.0 mm 0.00 in/hr0.0 mm/hr 0.00 in0.0 mm
09:36 PM 65.5°F18.6°C 65.5°F18.6°C 100% - N16091.8 kmh N -- 29.98 in1015.2 mb 0.00 in0.0 mm 0.00 in/hr0.0 mm/hr 0.00 in0.0 mm
09:41 PM 65.5°F18.6°C 65.5°F18.6°C 100% - N16091.8 kmh N -- 29.98 in1015.2 mb 0.00 in0.0 mm 0.00 in/hr0.0 mm/hr 0.00 in0.0 mm
09:46 PM 65.5°F18.6°C 65.5°F18.6°C 100% - N16091.8 kmh N -- 29.98 in1015.2 mb 0.00 in0.0 mm 0.00 in/hr0.0 mm/hr 0.00 in0.0 mm
09:51 PM 65.5°F18.6°C 65.5°F18.6°C 100% - N16091.8 kmh N -- 29.98 in1015.2 mb 0.00 in0.0 mm 0.00 in/hr0.0 mm/hr 0.00 in0.0 mm
09:56 PM 65.5°F18.6°C 65.5°F18.6°C 100% - N16091.8 kmh N -- 29.98 in1015.2 mb 0.00 in0.0 mm 0.00 in/hr0.0 mm/hr 0.00 in0.0 mm
10:01 PM 65.3°F18.5°C 65.3°F18.5°C 100% - N16091.8 kmh N -- 29.98 in1015.2 mb 0.00 in0.0 mm 0.00 in/hr0.0 mm/hr 0.00 in0.0 mm
10:07 PM 65.1°F18.4°C 65.1°F18.4°C 100% - N16091.8 kmh N -- 29.98 in1015.2 mb 0.00 in0.0 mm 0.00 in/hr0.0 mm/hr 0.00 in0.0 mm
10:12 PM 64.9°F18.3°C 64.9°F18.3°C 100% - N16091.8 kmh N -- 29.98 in1015.2 mb 0.00 in0.0 mm 0.00 in/hr0.0 mm/hr 0.00 in0.0 mm
10:17 PM 64.9°F18.3°C 64.9°F18.3°C 100% - N16091.8 kmh N -- 29.98 in1015.2 mb 0.00 in0.0 mm 0.00 in/hr0.0 mm/hr 0.00 in0.0 mm
10:23 PM 64.8°F18.2°C 64.8°F18.2°C 100% - N16091.8 kmh N -- 29.98 in1015.2 mb 0.00 in0.0 mm 0.00 in/hr0.0 mm/hr 0.00 in0.0 mm
10:28 PM 64.8°F18.2°C 64.8°F18.2°C 100% - N16091.8 kmh N -- 29.98 in1015.2 mb 0.00 in0.0 mm 0.00 in/hr0.0 mm/hr 0.00 in0.0 mm
10:33 PM 64.8°F18.2°C 64.8°F18.2°C 100% - N16091.8 kmh N -- 29.98 in1015.2 mb 0.00 in0.0 mm 0.00 in/hr0.0 mm/hr 0.00 in0.0 mm
10:38 PM 64.6°F18.1°C 64.6°F18.1°C 100% - N16091.8 kmh N -- 29.98 in1015.2 mb 0.00 in0.0 mm 0.00 in/hr0.0 mm/hr 0.00 in0.0 mm
10:44 PM 64.6°F18.1°C 64.6°F18.1°C 100% - N16091.8 kmh N -- 29.98 in1015.2 mb 0.00 in0.0 mm 0.00 in/hr0.0 mm/hr 0.00 in0.0 mm
10:49 PM 64.6°F18.1°C 64.6°F18.1°C 100% - N16091.8 kmh N -- 29.98 in1015.2 mb 0.00 in0.0 mm 0.00 in/hr0.0 mm/hr 0.00 in0.0 mm
10:56 PM 64.6°F18.1°C 64.6°F18.1°C 100% - N16091.8 kmh N -- 29.98 in1015.2 mb 0.00 in0.0 mm 0.00 in/hr0.0 mm/hr 0.00 in0.0 mm
11:01 PM 64.4°F18.0°C 64.4°F18.0°C 100% - N16091.8 kmh N -- 29.98 in1015.2 mb 0.00 in0.0 mm 0.00 in/hr0.0 mm/hr 0.00 in0.0 mm
11:06 PM 64.4°F18.0°C 64.4°F18.0°C 100% - N16091.8 kmh N -- 29.98 in1015.2 mb 0.00 in0.0 mm 0.00 in/hr0.0 mm/hr 0.00 in0.0 mm
11:11 PM 64.4°F18.0°C 64.4°F18.0°C 100% - N16091.8 kmh N -- 29.98 in1015.2 mb 0.00 in0.0 mm 0.00 in/hr0.0 mm/hr 0.00 in0.0 mm
11:18 PM 64.2°F17.9°C 64.2°F17.9°C 100% - N16091.8 kmh N -- 29.98 in1015.2 mb 0.00 in0.0 mm 0.00 in/hr0.0 mm/hr 0.00 in0.0 mm
11:23 PM 64.2°F17.9°C 64.2°F17.9°C 100% - N16091.8 kmh N -- 29.98 in1015.2 mb 0.00 in0.0 mm 0.00 in/hr0.0 mm/hr 0.00 in0.0 mm
11:28 PM 64.2°F17.9°C 64.2°F17.9°C 100% - N16091.8 kmh N -- 29.98 in1015.2 mb 0.00 in0.0 mm 0.00 in/hr0.0 mm/hr 0.00 in0.0 mm
11:33 PM 64.0°F17.8°C 64.0°F17.8°C 100% - N16091.8 kmh N -- 29.98 in1015.2 mb 0.00 in0.0 mm 0.00 in/hr0.0 mm/hr 0.00 in0.0 mm
11:40 PM 63.9°F17.7°C 63.9°F17.7°C 100% - N16091.8 kmh N -- 29.98 in1015.2 mb 0.00 in0.0 mm 0.00 in/hr0.0 mm/hr 0.00 in0.0 mm
11:45 PM 63.7°F17.6°C 63.7°F17.6°C 100% - N16091.8 kmh N -- 29.98 in1015.2 mb 0.00 in0.0 mm 0.00 in/hr0.0 mm/hr 0.00 in0.0 mm
11:50 PM 63.7°F17.6°C 63.7°F17.6°C 100% - N16091.8 kmh N -- 29.98 in1015.2 mb 0.00 in0.0 mm 0.00 in/hr0.0 mm/hr 0.00 in0.0 mm
11:55 PM 63.5°F17.5°C 63.5°F17.5°C 100% - N16091.8 kmh N -- 29.98 in1015.2 mb 0.00 in0.0 mm 0.00 in/hr0.0 mm/hr 0.00 in0.0 mm